New Everest — 3EUZ8 — position and weather

sailwx.info

Track history (hours):
 
Tides and Currents Weather Stations Pressure Air Temp Water Temp Dewpoint Dewpoint Depression Visibility Wind Speed Wind Dir Waves Ship Positions

New Everest

Last reported at 2018-Feb-21 17:30 UTC. Time now 2018-Feb-21 17:34 UTC.
Position S 33°05' E 152°13'.

Length 176 m; draft 7.7 m.

Type: Cargo ship. MMSI: 372865000.

Date/timePositionNaut miles runAvg speedWind from/ knotsBaromVisibWave heightAir tempDewpointWater temp
2018-Feb-21 17:30S 33°05' E 152°13'0 0.8
2018-Feb-21 17:00S 33°04' E 152°13'0 0.8
2018-Feb-21 16:30S 33°04' E 152°14'0 0.9
2018-Feb-21 16:00S 33°04' E 152°14'0 0.8
2018-Feb-21 15:30S 33°04' E 152°15'0 0.8
2018-Feb-21 15:00S 33°04' E 152°15'0 0.8
2018-Feb-21 14:30S 33°04' E 152°16'0 1.0
2018-Feb-21 14:00S 33°04' E 152°16'0 0.9
2018-Feb-21 13:30S 33°03' E 152°17'0 0.9
2018-Feb-21 13:00S 33°03' E 152°17'0 0.9
2018-Feb-21 12:30S 33°03' E 152°18'0 0.9
2018-Feb-21 12:00S 33°03' E 152°18'0 0.9
2018-Feb-21 11:30S 33°02' E 152°18'0 0.8
2018-Feb-21 11:00S 33°02' E 152°19'0 0.8
2018-Feb-21 10:30S 33°02' E 152°19'1 1.3
2018-Feb-21 10:00S 33°01' E 152°18'3 6.4
2018-Feb-21 09:30S 33°02' E 152°15'5 9.8
2018-Feb-21 09:00S 33°04' E 152°09'4 8.8
2018-Feb-21 08:30S 33°05' E 152°04'4 8.7
2018-Feb-21 08:00S 33°07' E 151°59'8 7.4
2018-Feb-21 06:56S 33°09' E 151°50'3 2.0
2018-Feb-21 05:13S 33°07' E 151°54'0 1.7
2018-Feb-21 04:58S 33°07' E 151°54'1 2.0
2018-Feb-21 04:29S 33°07' E 151°55'1 1.9
2018-Feb-21 03:57S 33°06' E 151°56'1 1.8
2018-Feb-21 03:30S 33°06' E 151°57'1 1.9
2018-Feb-21 02:58S 33°06' E 151°58'1 1.6
2018-Feb-21 02:30S 33°06' E 151°59'1 1.7
2018-Feb-21 02:00S 33°06' E 152°00'1 1.9
2018-Feb-21 01:30S 33°05' E 152°01'2 4.2
2018-Feb-21 01:00S 33°04' E 151°60'4 8.1
2018-Feb-21 00:30S 33°01' E 151°56'3 5.8
2018-Feb-21 00:00S 33°01' E 151°53'4 8.3
2018-Feb-20 23:30S 33°05' E 151°52'3 6.9
2018-Feb-20 22:59S 33°08' E 151°52'4711.1
2018-Feb-20 18:48S 33°54' E 151°41'59111.6
2018-Feb-18 15:58S 43°14' E 147°39'  
2018-Feb-12 05:16S 40°37' E 147°55'311.4
2018-Feb-12 05:00S 40°36' E 147°51'611.6
2018-Feb-12 04:30S 40°34' E 147°44'611.6
2018-Feb-12 04:00S 40°31' E 147°38'611.8
2018-Feb-12 03:30S 40°27' E 147°32'611.9
2018-Feb-12 03:00S 40°24' E 147°26'612.0
2018-Feb-12 02:30S 40°20' E 147°19'612.0
2018-Feb-12 02:00S 40°16' E 147°13'612.0
2018-Feb-12 01:30S 40°12' E 147°07'612.0
2018-Feb-12 01:00S 40°08' E 147°01'611.8
2018-Feb-12 00:30S 40°05' E 146°55'  
Track history (hours):
 
Tides and Currents Weather Stations Pressure Air Temp Water Temp Dewpoint Dewpoint Depression Visibility Wind Speed Wind Dir Waves Ship Positions

New Everest

Last reported at 2018-Feb-21 17:30 UTC. Time now 2018-Feb-21 17:34 UTC.
Position S 33°05' E 152°13'.

Length 176 m; draft 7.7 m.

Type: Cargo ship. MMSI: 372865000.

Date/timePositionNaut miles runAvg speedWind from/ knotsBaromVisibWave heightAir tempDewpointWater temp
2018-Feb-21 17:30S 33°05' E 152°13'0 0.8
2018-Feb-21 17:00S 33°04' E 152°13'0 0.8
2018-Feb-21 16:30S 33°04' E 152°14'0 0.9
2018-Feb-21 16:00S 33°04' E 152°14'0 0.8
2018-Feb-21 15:30S 33°04' E 152°15'0 0.8
2018-Feb-21 15:00S 33°04' E 152°15'0 0.8
2018-Feb-21 14:30S 33°04' E 152°16'0 1.0
2018-Feb-21 14:00S 33°04' E 152°16'0 0.9
2018-Feb-21 13:30S 33°03' E 152°17'0 0.9
2018-Feb-21 13:00S 33°03' E 152°17'0 0.9
2018-Feb-21 12:30S 33°03' E 152°18'0 0.9
2018-Feb-21 12:00S 33°03' E 152°18'0 0.9
2018-Feb-21 11:30S 33°02' E 152°18'0 0.8
2018-Feb-21 11:00S 33°02' E 152°19'0 0.8
2018-Feb-21 10:30S 33°02' E 152°19'1 1.3
2018-Feb-21 10:00S 33°01' E 152°18'3 6.4
2018-Feb-21 09:30S 33°02' E 152°15'5 9.8
2018-Feb-21 09:00S 33°04' E 152°09'4 8.8
2018-Feb-21 08:30S 33°05' E 152°04'4 8.7
2018-Feb-21 08:00S 33°07' E 151°59'8 7.4
2018-Feb-21 06:56S 33°09' E 151°50'3 2.0
2018-Feb-21 05:13S 33°07' E 151°54'0 1.7
2018-Feb-21 04:58S 33°07' E 151°54'1 2.0
2018-Feb-21 04:29S 33°07' E 151°55'1 1.9
2018-Feb-21 03:57S 33°06' E 151°56'1 1.8
2018-Feb-21 03:30S 33°06' E 151°57'1 1.9
2018-Feb-21 02:58S 33°06' E 151°58'1 1.6
2018-Feb-21 02:30S 33°06' E 151°59'1 1.7
2018-Feb-21 02:00S 33°06' E 152°00'1 1.9
2018-Feb-21 01:30S 33°05' E 152°01'2 4.2
2018-Feb-21 01:00S 33°04' E 151°60'4 8.1
2018-Feb-21 00:30S 33°01' E 151°56'3 5.8
2018-Feb-21 00:00S 33°01' E 151°53'4 8.3
2018-Feb-20 23:30S 33°05' E 151°52'3 6.9
2018-Feb-20 22:59S 33°08' E 151°52'4711.1
2018-Feb-20 18:48S 33°54' E 151°41'59111.6
2018-Feb-18 15:58S 43°14' E 147°39'  
2018-Feb-12 05:16S 40°37' E 147°55'311.4
2018-Feb-12 05:00S 40°36' E 147°51'611.6
2018-Feb-12 04:30S 40°34' E 147°44'611.6
2018-Feb-12 04:00S 40°31' E 147°38'611.8
2018-Feb-12 03:30S 40°27' E 147°32'611.9
2018-Feb-12 03:00S 40°24' E 147°26'612.0
2018-Feb-12 02:30S 40°20' E 147°19'612.0
2018-Feb-12 02:00S 40°16' E 147°13'612.0
2018-Feb-12 01:30S 40°12' E 147°07'612.0
2018-Feb-12 01:00S 40°08' E 147°01'611.8
2018-Feb-12 00:30S 40°05' E 146°55'  

Dump ship's entire track history